sensor_id;sensor_type;location;lat;lon;timestamp;P1;durP1;ratioP1;P2;durP2;ratioP2
74059;SDS011;62414;53.436;8.828;2023-05-01T00:01:20;25.07;;;10.60;;
74059;SDS011;62414;53.436;8.828;2023-05-01T00:03:45;23.43;;;11.20;;
74059;SDS011;62414;53.436;8.828;2023-05-01T00:06:12;24.10;;;10.87;;
74059;SDS011;62414;53.436;8.828;2023-05-01T00:08:37;24.80;;;11.35;;
74059;SDS011;62414;53.436;8.828;2023-05-01T00:11:03;21.97;;;10.83;;
74059;SDS011;62414;53.436;8.828;2023-05-01T00:13:29;25.60;;;11.50;;
74059;SDS011;62414;53.436;8.828;2023-05-01T00:15:54;25.77;;;11.93;;
74059;SDS011;62414;53.436;8.828;2023-05-01T00:18:20;25.00;;;11.70;;
74059;SDS011;62414;53.436;8.828;2023-05-01T00:20:45;26.77;;;11.37;;
74059;SDS011;62414;53.436;8.828;2023-05-01T00:23:12;28.33;;;11.77;;
74059;SDS011;62414;53.436;8.828;2023-05-01T00:25:38;23.80;;;11.90;;
74059;SDS011;62414;53.436;8.828;2023-05-01T00:28:03;25.85;;;11.70;;
74059;SDS011;62414;53.436;8.828;2023-05-01T00:30:29;26.83;;;12.27;;
74059;SDS011;62414;53.436;8.828;2023-05-01T00:32:56;28.02;;;11.90;;
74059;SDS011;62414;53.436;8.828;2023-05-01T00:35:21;26.87;;;12.17;;
74059;SDS011;62414;53.436;8.828;2023-05-01T00:37:47;26.23;;;12.33;;
74059;SDS011;62414;53.436;8.828;2023-05-01T00:40:13;26.85;;;12.35;;
74059;SDS011;62414;53.436;8.828;2023-05-01T00:42:39;25.33;;;12.37;;
74059;SDS011;62414;53.436;8.828;2023-05-01T00:45:05;26.17;;;12.60;;
74059;SDS011;62414;53.436;8.828;2023-05-01T00:47:31;25.02;;;13.10;;
74059;SDS011;62414;53.436;8.828;2023-05-01T00:49:57;25.67;;;13.60;;
74059;SDS011;62414;53.436;8.828;2023-05-01T00:52:23;32.08;;;13.70;;
74059;SDS011;62414;53.436;8.828;2023-05-01T00:54:49;30.63;;;13.90;;
74059;SDS011;62414;53.436;8.828;2023-05-01T00:57:16;27.60;;;13.67;;
74059;SDS011;62414;53.436;8.828;2023-05-01T00:59:41;28.48;;;13.63;;
74059;SDS011;62414;53.436;8.828;2023-05-01T01:02:07;29.23;;;13.00;;
74059;SDS011;62414;53.436;8.828;2023-05-01T01:04:32;28.73;;;13.20;;
74059;SDS011;62414;53.436;8.828;2023-05-01T01:07:01;30.17;;;13.53;;
74059;SDS011;62414;53.436;8.828;2023-05-01T01:09:30;29.05;;;13.77;;
74059;SDS011;62414;53.436;8.828;2023-05-01T01:12:04;29.15;;;13.13;;
74059;SDS011;62414;53.436;8.828;2023-05-01T01:14:41;30.07;;;13.53;;
74059;SDS011;62414;53.436;8.828;2023-05-01T01:17:10;30.02;;;13.70;;
74059;SDS011;62414;53.436;8.828;2023-05-01T01:19:47;28.98;;;14.02;;
74059;SDS011;62414;53.436;8.828;2023-05-01T01:22:45;27.88;;;13.40;;
74059;SDS011;62414;53.436;8.828;2023-05-01T01:25:24;34.28;;;13.85;;
74059;SDS011;62414;53.436;8.828;2023-05-01T01:28:03;28.00;;;13.20;;
74059;SDS011;62414;53.436;8.828;2023-05-01T01:30:46;27.73;;;13.20;;
74059;SDS011;62414;53.436;8.828;2023-05-01T01:36:10;28.45;;;13.02;;
74059;SDS011;62414;53.436;8.828;2023-05-01T01:38:41;26.15;;;13.20;;
74059;SDS011;62414;53.436;8.828;2023-05-01T01:41:11;25.97;;;13.37;;
74059;SDS011;62414;53.436;8.828;2023-05-01T01:43:38;28.10;;;12.93;;
74059;SDS011;62414;53.436;8.828;2023-05-01T01:46:05;27.50;;;13.65;;
74059;SDS011;62414;53.436;8.828;2023-05-01T01:48:32;28.67;;;13.02;;
74059;SDS011;62414;53.436;8.828;2023-05-01T01:51:02;28.38;;;13.63;;
74059;SDS011;62414;53.436;8.828;2023-05-01T01:53:30;28.20;;;13.77;;
74059;SDS011;62414;53.436;8.828;2023-05-01T01:55:57;26.52;;;13.43;;
74059;SDS011;62414;53.436;8.828;2023-05-01T01:58:24;28.88;;;13.50;;
74059;SDS011;62414;53.436;8.828;2023-05-01T02:00:51;27.90;;;13.23;;
74059;SDS011;62414;53.436;8.828;2023-05-01T02:03:18;24.88;;;13.00;;
74059;SDS011;62414;53.436;8.828;2023-05-01T02:05:44;26.73;;;12.83;;
74059;SDS011;62414;53.436;8.828;2023-05-01T02:08:12;25.55;;;12.40;;
74059;SDS011;62414;53.436;8.828;2023-05-01T02:10:39;25.88;;;12.63;;
74059;SDS011;62414;53.436;8.828;2023-05-01T02:13:05;26.67;;;12.38;;
74059;SDS011;62414;53.436;8.828;2023-05-01T02:15:31;24.37;;;12.53;;
74059;SDS011;62414;53.436;8.828;2023-05-01T02:17:57;22.77;;;12.00;;
74059;SDS011;62414;53.436;8.828;2023-05-01T02:20:23;25.38;;;11.63;;
74059;SDS011;62414;53.436;8.828;2023-05-01T02:22:49;27.03;;;11.87;;
74059;SDS011;62414;53.436;8.828;2023-05-01T02:25:17;23.92;;;11.23;;
74059;SDS011;62414;53.436;8.828;2023-05-01T02:27:43;21.85;;;10.93;;
74059;SDS011;62414;53.436;8.828;2023-05-01T02:30:11;23.95;;;11.10;;
74059;SDS011;62414;53.436;8.828;2023-05-01T02:32:37;23.03;;;11.07;;
74059;SDS011;62414;53.436;8.828;2023-05-01T02:35:02;23.33;;;11.03;;
74059;SDS011;62414;53.436;8.828;2023-05-01T02:37:28;21.45;;;11.10;;
74059;SDS011;62414;53.436;8.828;2023-05-01T02:39:54;24.20;;;10.70;;
74059;SDS011;62414;53.436;8.828;2023-05-01T02:42:21;21.33;;;10.13;;
74059;SDS011;62414;53.436;8.828;2023-05-01T02:44:48;22.38;;;10.07;;
74059;SDS011;62414;53.436;8.828;2023-05-01T02:47:17;20.20;;;10.57;;
74059;SDS011;62414;53.436;8.828;2023-05-01T02:49:44;23.83;;;10.57;;
74059;SDS011;62414;53.436;8.828;2023-05-01T02:52:10;21.92;;;10.00;;
74059;SDS011;62414;53.436;8.828;2023-05-01T02:54:35;21.25;;;9.55;;
74059;SDS011;62414;53.436;8.828;2023-05-01T02:57:02;21.17;;;9.57;;
74059;SDS011;62414;53.436;8.828;2023-05-01T02:59:29;22.13;;;9.80;;
74059;SDS011;62414;53.436;8.828;2023-05-01T03:01:55;19.35;;;8.95;;
74059;SDS011;62414;53.436;8.828;2023-05-01T03:04:20;19.63;;;8.98;;
74059;SDS011;62414;53.436;8.828;2023-05-01T03:06:46;21.80;;;9.53;;
74059;SDS011;62414;53.436;8.828;2023-05-01T03:09:11;20.13;;;8.80;;
74059;SDS011;62414;53.436;8.828;2023-05-01T03:11:37;18.47;;;8.60;;
74059;SDS011;62414;53.436;8.828;2023-05-01T03:14:02;20.92;;;8.30;;
74059;SDS011;62414;53.436;8.828;2023-05-01T03:16:29;19.43;;;8.30;;
74059;SDS011;62414;53.436;8.828;2023-05-01T03:18:54;17.95;;;8.30;;
74059;SDS011;62414;53.436;8.828;2023-05-01T03:21:20;16.70;;;7.63;;
74059;SDS011;62414;53.436;8.828;2023-05-01T03:23:45;20.33;;;7.43;;
74059;SDS011;62414;53.436;8.828;2023-05-01T03:26:11;18.47;;;6.87;;
74059;SDS011;62414;53.436;8.828;2023-05-01T03:28:37;15.07;;;6.57;;
74059;SDS011;62414;53.436;8.828;2023-05-01T03:31:03;15.98;;;6.45;;
74059;SDS011;62414;53.436;8.828;2023-05-01T03:33:31;14.37;;;6.07;;
74059;SDS011;62414;53.436;8.828;2023-05-01T03:36:00;13.60;;;5.65;;
74059;SDS011;62414;53.436;8.828;2023-05-01T03:38:27;14.35;;;6.13;;
74059;SDS011;62414;53.436;8.828;2023-05-01T03:41:24;14.23;;;5.93;;
74059;SDS011;62414;53.436;8.828;2023-05-01T03:43:49;13.70;;;5.23;;
74059;SDS011;62414;53.436;8.828;2023-05-01T03:46:29;13.40;;;5.70;;
74059;SDS011;62414;53.436;8.828;2023-05-01T03:48:57;14.57;;;5.50;;
74059;SDS011;62414;53.436;8.828;2023-05-01T03:51:23;12.67;;;5.90;;
74059;SDS011;62414;53.436;8.828;2023-05-01T03:53:52;12.98;;;5.78;;
74059;SDS011;62414;53.436;8.828;2023-05-01T03:56:18;15.27;;;5.63;;
74059;SDS011;62414;53.436;8.828;2023-05-01T03:58:43;15.03;;;5.33;;
74059;SDS011;62414;53.436;8.828;2023-05-01T04:01:09;12.15;;;5.22;;
74059;SDS011;62414;53.436;8.828;2023-05-01T04:03:40;14.30;;;5.80;;
74059;SDS011;62414;53.436;8.828;2023-05-01T04:06:07;12.57;;;5.40;;
74059;SDS011;62414;53.436;8.828;2023-05-01T04:08:32;12.23;;;5.35;;
74059;SDS011;62414;53.436;8.828;2023-05-01T04:10:58;12.60;;;5.20;;
74059;SDS011;62414;53.436;8.828;2023-05-01T04:13:24;13.73;;;5.33;;
74059;SDS011;62414;53.436;8.828;2023-05-01T04:15:49;13.15;;;4.63;;
74059;SDS011;62414;53.436;8.828;2023-05-01T04:18:15;11.40;;;5.20;;
74059;SDS011;62414;53.436;8.828;2023-05-01T04:20:40;11.13;;;5.05;;
74059;SDS011;62414;53.436;8.828;2023-05-01T04:23:07;12.47;;;5.13;;
74059;SDS011;62414;53.436;8.828;2023-05-01T04:25:32;13.95;;;4.70;;
74059;SDS011;62414;53.436;8.828;2023-05-01T04:28:04;11.73;;;4.60;;
74059;SDS011;62414;53.436;8.828;2023-05-01T04:30:30;12.00;;;4.55;;
74059;SDS011;62414;53.436;8.828;2023-05-01T04:32:55;11.90;;;4.43;;
74059;SDS011;62414;53.436;8.828;2023-05-01T04:35:21;10.40;;;4.07;;
74059;SDS011;62414;53.436;8.828;2023-05-01T04:37:46;11.83;;;4.37;;
74059;SDS011;62414;53.436;8.828;2023-05-01T04:40:13;10.50;;;3.90;;
74059;SDS011;62414;53.436;8.828;2023-05-01T04:42:40;11.68;;;4.28;;
74059;SDS011;62414;53.436;8.828;2023-05-01T04:45:08;8.77;;;3.63;;
74059;SDS011;62414;53.436;8.828;2023-05-01T04:47:35;12.07;;;4.30;;
74059;SDS011;62414;53.436;8.828;2023-05-01T04:50:00;8.87;;;3.90;;
74059;SDS011;62414;53.436;8.828;2023-05-01T04:52:26;10.30;;;3.90;;
74059;SDS011;62414;53.436;8.828;2023-05-01T04:54:56;9.77;;;4.13;;
74059;SDS011;62414;53.436;8.828;2023-05-01T04:57:24;10.20;;;3.60;;
74059;SDS011;62414;53.436;8.828;2023-05-01T04:59:50;10.90;;;4.38;;
74059;SDS011;62414;53.436;8.828;2023-05-01T05:02:15;10.83;;;3.50;;
74059;SDS011;62414;53.436;8.828;2023-05-01T05:04:41;7.87;;;3.50;;
74059;SDS011;62414;53.436;8.828;2023-05-01T05:07:06;11.27;;;3.88;;
74059;SDS011;62414;53.436;8.828;2023-05-01T05:09:52;14.32;;;4.10;;
74059;SDS011;62414;53.436;8.828;2023-05-01T05:12:18;12.57;;;3.50;;
74059;SDS011;62414;53.436;8.828;2023-05-01T05:14:44;8.65;;;3.50;;
74059;SDS011;62414;53.436;8.828;2023-05-01T05:17:11;9.83;;;3.50;;
74059;SDS011;62414;53.436;8.828;2023-05-01T05:19:37;9.88;;;3.45;;
74059;SDS011;62414;53.436;8.828;2023-05-01T05:22:02;8.40;;;3.07;;
74059;SDS011;62414;53.436;8.828;2023-05-01T05:24:31;10.65;;;3.33;;
74059;SDS011;62414;53.436;8.828;2023-05-01T05:26:57;8.57;;;3.50;;
74059;SDS011;62414;53.436;8.828;2023-05-01T05:29:23;9.37;;;3.67;;
74059;SDS011;62414;53.436;8.828;2023-05-01T05:31:50;9.63;;;3.30;;
74059;SDS011;62414;53.436;8.828;2023-05-01T05:34:16;10.20;;;3.35;;
74059;SDS011;62414;53.436;8.828;2023-05-01T05:36:42;13.07;;;3.30;;
74059;SDS011;62414;53.436;8.828;2023-05-01T05:39:07;8.83;;;2.87;;
74059;SDS011;62414;53.436;8.828;2023-05-01T05:41:33;12.73;;;3.45;;
74059;SDS011;62414;53.436;8.828;2023-05-01T05:44:00;8.65;;;3.10;;
74059;SDS011;62414;53.436;8.828;2023-05-01T05:46:26;9.77;;;3.05;;
74059;SDS011;62414;53.436;8.828;2023-05-01T05:48:53;8.50;;;2.83;;
74059;SDS011;62414;53.436;8.828;2023-05-01T05:51:18;8.57;;;3.00;;
74059;SDS011;62414;53.436;8.828;2023-05-01T05:53:44;9.27;;;3.27;;
74059;SDS011;62414;53.436;8.828;2023-05-01T05:56:09;10.90;;;3.20;;
74059;SDS011;62414;53.436;8.828;2023-05-01T05:58:36;10.02;;;3.35;;
74059;SDS011;62414;53.436;8.828;2023-05-01T06:01:02;11.45;;;3.40;;
74059;SDS011;62414;53.436;8.828;2023-05-01T06:03:28;11.67;;;3.60;;
74059;SDS011;62414;53.436;8.828;2023-05-01T06:05:59;10.85;;;3.55;;
74059;SDS011;62414;53.436;8.828;2023-05-01T06:08:25;7.88;;;2.90;;
74059;SDS011;62414;53.436;8.828;2023-05-01T06:10:50;9.60;;;3.13;;
74059;SDS011;62414;53.436;8.828;2023-05-01T06:13:15;7.93;;;2.90;;
74059;SDS011;62414;53.436;8.828;2023-05-01T06:15:44;7.13;;;2.70;;
74059;SDS011;62414;53.436;8.828;2023-05-01T06:18:10;11.40;;;3.22;;
74059;SDS011;62414;53.436;8.828;2023-05-01T06:20:35;10.17;;;3.30;;
74059;SDS011;62414;53.436;8.828;2023-05-01T06:23:02;8.43;;;3.10;;
74059;SDS011;62414;53.436;8.828;2023-05-01T06:25:38;8.57;;;3.10;;
74059;SDS011;62414;53.436;8.828;2023-05-01T06:28:03;9.35;;;2.90;;
74059;SDS011;62414;53.436;8.828;2023-05-01T06:30:30;7.27;;;2.83;;
74059;SDS011;62414;53.436;8.828;2023-05-01T06:32:58;8.27;;;3.10;;
74059;SDS011;62414;53.436;8.828;2023-05-01T06:35:24;8.50;;;3.00;;
74059;SDS011;62414;53.436;8.828;2023-05-01T06:37:49;10.97;;;3.27;;
74059;SDS011;62414;53.436;8.828;2023-05-01T06:40:16;9.10;;;2.87;;
74059;SDS011;62414;53.436;8.828;2023-05-01T06:42:42;7.22;;;2.90;;
74059;SDS011;62414;53.436;8.828;2023-05-01T06:45:07;9.67;;;2.90;;
74059;SDS011;62414;53.436;8.828;2023-05-01T06:47:33;8.05;;;3.03;;
74059;SDS011;62414;53.436;8.828;2023-05-01T06:49:59;9.13;;;2.83;;
74059;SDS011;62414;53.436;8.828;2023-05-01T06:52:25;8.63;;;3.00;;
74059;SDS011;62414;53.436;8.828;2023-05-01T06:54:50;7.97;;;2.73;;
74059;SDS011;62414;53.436;8.828;2023-05-01T06:57:17;9.32;;;3.13;;
74059;SDS011;62414;53.436;8.828;2023-05-01T06:59:43;8.20;;;2.60;;
74059;SDS011;62414;53.436;8.828;2023-05-01T07:02:09;7.35;;;2.75;;
74059;SDS011;62414;53.436;8.828;2023-05-01T07:04:34;8.00;;;2.80;;
74059;SDS011;62414;53.436;8.828;2023-05-01T07:06:59;8.07;;;2.67;;
74059;SDS011;62414;53.436;8.828;2023-05-01T07:09:25;7.80;;;2.80;;
74059;SDS011;62414;53.436;8.828;2023-05-01T07:11:50;13.33;;;3.00;;
74059;SDS011;62414;53.436;8.828;2023-05-01T07:14:17;7.90;;;2.80;;
74059;SDS011;62414;53.436;8.828;2023-05-01T07:16:42;9.45;;;2.85;;
74059;SDS011;62414;53.436;8.828;2023-05-01T07:19:08;7.23;;;2.97;;
74059;SDS011;62414;53.436;8.828;2023-05-01T07:21:33;7.70;;;3.00;;
74059;SDS011;62414;53.436;8.828;2023-05-01T07:23:59;10.43;;;3.13;;
74059;SDS011;62414;53.436;8.828;2023-05-01T07:26:24;8.57;;;3.13;;
74059;SDS011;62414;53.436;8.828;2023-05-01T07:28:50;7.05;;;2.38;;
74059;SDS011;62414;53.436;8.828;2023-05-01T07:31:17;7.70;;;2.50;;
74059;SDS011;62414;53.436;8.828;2023-05-01T07:33:43;10.30;;;2.65;;
74059;SDS011;62414;53.436;8.828;2023-05-01T07:36:08;7.47;;;2.78;;
74059;SDS011;62414;53.436;8.828;2023-05-01T07:38:33;7.57;;;2.30;;
74059;SDS011;62414;53.436;8.828;2023-05-01T07:40:59;8.17;;;2.70;;
74059;SDS011;62414;53.436;8.828;2023-05-01T07:43:24;8.87;;;2.57;;
74059;SDS011;62414;53.436;8.828;2023-05-01T07:45:53;7.63;;;2.70;;
74059;SDS011;62414;53.436;8.828;2023-05-01T07:48:21;7.57;;;2.50;;
74059;SDS011;62414;53.436;8.828;2023-05-01T07:50:47;7.65;;;2.40;;
74059;SDS011;62414;53.436;8.828;2023-05-01T07:53:12;7.43;;;2.50;;
74059;SDS011;62414;53.436;8.828;2023-05-01T07:55:37;6.63;;;2.17;;
74059;SDS011;62414;53.436;8.828;2023-05-01T07:58:03;7.40;;;2.40;;
74059;SDS011;62414;53.436;8.828;2023-05-01T08:00:28;7.33;;;2.43;;
74059;SDS011;62414;53.436;8.828;2023-05-01T08:02:54;8.43;;;2.43;;
74059;SDS011;62414;53.436;8.828;2023-05-01T08:05:20;6.17;;;2.47;;
74059;SDS011;62414;53.436;8.828;2023-05-01T08:07:46;8.30;;;2.17;;
74059;SDS011;62414;53.436;8.828;2023-05-01T08:10:11;9.57;;;2.20;;
74059;SDS011;62414;53.436;8.828;2023-05-01T08:12:37;7.00;;;2.20;;
74059;SDS011;62414;53.436;8.828;2023-05-01T08:15:03;7.03;;;2.30;;
74059;SDS011;62414;53.436;8.828;2023-05-01T08:17:28;5.72;;;2.35;;
74059;SDS011;62414;53.436;8.828;2023-05-01T08:19:54;10.93;;;2.87;;
74059;SDS011;62414;53.436;8.828;2023-05-01T08:22:21;7.45;;;2.50;;
74059;SDS011;62414;53.436;8.828;2023-05-01T08:24:46;7.07;;;2.47;;
74059;SDS011;62414;53.436;8.828;2023-05-01T08:27:12;5.50;;;2.50;;
74059;SDS011;62414;53.436;8.828;2023-05-01T08:29:37;7.17;;;2.43;;
74059;SDS011;62414;53.436;8.828;2023-05-01T08:32:02;7.57;;;2.60;;
74059;SDS011;62414;53.436;8.828;2023-05-01T08:34:28;6.75;;;2.35;;
74059;SDS011;62414;53.436;8.828;2023-05-01T08:36:53;8.50;;;2.57;;
74059;SDS011;62414;53.436;8.828;2023-05-01T08:39:20;6.97;;;2.50;;
74059;SDS011;62414;53.436;8.828;2023-05-01T08:41:46;6.25;;;2.42;;
74059;SDS011;62414;53.436;8.828;2023-05-01T08:44:12;8.47;;;2.57;;
74059;SDS011;62414;53.436;8.828;2023-05-01T08:46:42;9.20;;;2.40;;
74059;SDS011;62414;53.436;8.828;2023-05-01T08:49:09;6.25;;;2.40;;
74059;SDS011;62414;53.436;8.828;2023-05-01T08:51:36;8.70;;;2.70;;
74059;SDS011;62414;53.436;8.828;2023-05-01T08:54:03;9.20;;;2.75;;
74059;SDS011;62414;53.436;8.828;2023-05-01T08:56:31;7.07;;;2.40;;
74059;SDS011;62414;53.436;8.828;2023-05-01T08:59:00;6.75;;;2.58;;
74059;SDS011;62414;53.436;8.828;2023-05-01T09:01:28;6.50;;;2.60;;
74059;SDS011;62414;53.436;8.828;2023-05-01T09:03:54;6.90;;;2.30;;
74059;SDS011;62414;53.436;8.828;2023-05-01T09:06:21;9.63;;;2.35;;
74059;SDS011;62414;53.436;8.828;2023-05-01T09:08:46;6.50;;;2.20;;
74059;SDS011;62414;53.436;8.828;2023-05-01T09:11:12;7.93;;;2.30;;
74059;SDS011;62414;53.436;8.828;2023-05-01T09:13:39;6.57;;;2.10;;
74059;SDS011;62414;53.436;8.828;2023-05-01T09:16:04;5.63;;;2.25;;
74059;SDS011;62414;53.436;8.828;2023-05-01T09:18:30;5.73;;;2.50;;
74059;SDS011;62414;53.436;8.828;2023-05-01T09:20:56;6.45;;;2.47;;
74059;SDS011;62414;53.436;8.828;2023-05-01T09:23:21;7.57;;;2.40;;
74059;SDS011;62414;53.436;8.828;2023-05-01T09:25:47;6.77;;;2.10;;
74059;SDS011;62414;53.436;8.828;2023-05-01T09:28:12;6.40;;;2.58;;
74059;SDS011;62414;53.436;8.828;2023-05-01T09:30:39;6.10;;;2.03;;
74059;SDS011;62414;53.436;8.828;2023-05-01T09:33:05;8.35;;;2.67;;
74059;SDS011;62414;53.436;8.828;2023-05-01T09:35:31;7.30;;;2.10;;
74059;SDS011;62414;53.436;8.828;2023-05-01T09:37:57;6.23;;;2.40;;
74059;SDS011;62414;53.436;8.828;2023-05-01T09:40:25;4.97;;;2.20;;
74059;SDS011;62414;53.436;8.828;2023-05-01T09:42:51;6.43;;;2.10;;
74059;SDS011;62414;53.436;8.828;2023-05-01T09:45:18;8.18;;;2.33;;
74059;SDS011;62414;53.436;8.828;2023-05-01T09:47:45;6.68;;;2.10;;
74059;SDS011;62414;53.436;8.828;2023-05-01T09:50:11;5.80;;;1.90;;
74059;SDS011;62414;53.436;8.828;2023-05-01T09:52:53;6.27;;;2.03;;
74059;SDS011;62414;53.436;8.828;2023-05-01T09:55:18;8.93;;;2.72;;
74059;SDS011;62414;53.436;8.828;2023-05-01T09:57:45;5.43;;;2.30;;
74059;SDS011;62414;53.436;8.828;2023-05-01T10:00:11;6.00;;;2.10;;
74059;SDS011;62414;53.436;8.828;2023-05-01T10:02:38;6.18;;;2.20;;
74059;SDS011;62414;53.436;8.828;2023-05-01T10:05:05;6.05;;;2.10;;
74059;SDS011;62414;53.436;8.828;2023-05-01T10:07:32;5.70;;;2.27;;
74059;SDS011;62414;53.436;8.828;2023-05-01T10:09:58;9.38;;;2.55;;
74059;SDS011;62414;53.436;8.828;2023-05-01T10:12:24;7.47;;;2.60;;
74059;SDS011;62414;53.436;8.828;2023-05-01T10:14:50;8.70;;;2.60;;
74059;SDS011;62414;53.436;8.828;2023-05-01T10:17:16;7.20;;;2.55;;
74059;SDS011;62414;53.436;8.828;2023-05-01T10:19:42;9.00;;;2.50;;
74059;SDS011;62414;53.436;8.828;2023-05-01T10:22:09;6.40;;;2.27;;
74059;SDS011;62414;53.436;8.828;2023-05-01T10:24:35;7.38;;;2.20;;
74059;SDS011;62414;53.436;8.828;2023-05-01T10:27:00;6.10;;;2.40;;
74059;SDS011;62414;53.436;8.828;2023-05-01T10:29:26;6.87;;;2.40;;
74059;SDS011;62414;53.436;8.828;2023-05-01T10:31:51;6.72;;;2.50;;
74059;SDS011;62414;53.436;8.828;2023-05-01T10:34:17;7.50;;;2.43;;
74059;SDS011;62414;53.436;8.828;2023-05-01T10:36:46;7.20;;;2.42;;
74059;SDS011;62414;53.436;8.828;2023-05-01T10:39:29;7.53;;;2.25;;
74059;SDS011;62414;53.436;8.828;2023-05-01T10:42:02;5.88;;;2.20;;
74059;SDS011;62414;53.436;8.828;2023-05-01T10:44:28;6.55;;;2.70;;
74059;SDS011;62414;53.436;8.828;2023-05-01T10:46:54;6.97;;;2.20;;
74059;SDS011;62414;53.436;8.828;2023-05-01T10:49:19;5.37;;;2.40;;
74059;SDS011;62414;53.436;8.828;2023-05-01T10:54:26;6.17;;;2.20;;
74059;SDS011;62414;53.436;8.828;2023-05-01T10:56:53;6.88;;;2.25;;
74059;SDS011;62414;53.436;8.828;2023-05-01T10:59:20;5.88;;;2.08;;
74059;SDS011;62414;53.436;8.828;2023-05-01T11:01:46;7.33;;;1.80;;
74059;SDS011;62414;53.436;8.828;2023-05-01T11:07:12;5.75;;;1.83;;
74059;SDS011;62414;53.436;8.828;2023-05-01T11:09:39;4.82;;;1.65;;
74059;SDS011;62414;53.436;8.828;2023-05-01T11:12:07;4.80;;;1.92;;
74059;SDS011;62414;53.436;8.828;2023-05-01T11:20:09;4.95;;;1.73;;
74059;SDS011;62414;53.436;8.828;2023-05-01T11:22:35;6.35;;;1.90;;
74059;SDS011;62414;53.436;8.828;2023-05-01T11:25:02;6.15;;;1.80;;
74059;SDS011;62414;53.436;8.828;2023-05-01T11:27:29;6.10;;;1.83;;
74059;SDS011;62414;53.436;8.828;2023-05-01T11:29:55;5.80;;;1.73;;
74059;SDS011;62414;53.436;8.828;2023-05-01T11:32:23;6.10;;;1.90;;
74059;SDS011;62414;53.436;8.828;2023-05-01T11:34:49;6.50;;;2.08;;
74059;SDS011;62414;53.436;8.828;2023-05-01T11:37:15;5.15;;;1.60;;
74059;SDS011;62414;53.436;8.828;2023-05-01T11:39:48;4.73;;;1.80;;
74059;SDS011;62414;53.436;8.828;2023-05-01T11:42:14;5.72;;;1.70;;
74059;SDS011;62414;53.436;8.828;2023-05-01T11:44:40;6.80;;;1.90;;
74059;SDS011;62414;53.436;8.828;2023-05-01T11:47:06;5.80;;;1.90;;
74059;SDS011;62414;53.436;8.828;2023-05-01T11:49:31;5.77;;;1.97;;
74059;SDS011;62414;53.436;8.828;2023-05-01T11:51:57;6.77;;;2.20;;
74059;SDS011;62414;53.436;8.828;2023-05-01T11:54:22;4.85;;;2.00;;
74059;SDS011;62414;53.436;8.828;2023-05-01T11:56:48;6.27;;;2.17;;
74059;SDS011;62414;53.436;8.828;2023-05-01T11:59:21;6.53;;;2.17;;
74059;SDS011;62414;53.436;8.828;2023-05-01T12:01:48;3.83;;;1.60;;
74059;SDS011;62414;53.436;8.828;2023-05-01T12:04:22;5.13;;;1.73;;
74059;SDS011;62414;53.436;8.828;2023-05-01T12:06:49;6.40;;;2.13;;
74059;SDS011;62414;53.436;8.828;2023-05-01T12:09:15;5.93;;;1.97;;
74059;SDS011;62414;53.436;8.828;2023-05-01T12:11:41;5.32;;;1.90;;
74059;SDS011;62414;53.436;8.828;2023-05-01T12:14:07;5.25;;;1.90;;
74059;SDS011;62414;53.436;8.828;2023-05-01T12:16:33;6.17;;;1.90;;
74059;SDS011;62414;53.436;8.828;2023-05-01T12:19:00;5.38;;;1.90;;
74059;SDS011;62414;53.436;8.828;2023-05-01T12:21:25;6.03;;;1.90;;
74059;SDS011;62414;53.436;8.828;2023-05-01T12:23:51;5.70;;;2.00;;
74059;SDS011;62414;53.436;8.828;2023-05-01T12:26:17;5.53;;;1.90;;
74059;SDS011;62414;53.436;8.828;2023-05-01T12:28:52;5.00;;;2.03;;
74059;SDS011;62414;53.436;8.828;2023-05-01T12:31:18;6.22;;;2.10;;
74059;SDS011;62414;53.436;8.828;2023-05-01T12:33:51;6.47;;;2.03;;
74059;SDS011;62414;53.436;8.828;2023-05-01T12:36:18;5.10;;;1.73;;
74059;SDS011;62414;53.436;8.828;2023-05-01T12:38:53;6.07;;;1.77;;
74059;SDS011;62414;53.436;8.828;2023-05-01T12:41:19;5.55;;;2.05;;
74059;SDS011;62414;53.436;8.828;2023-05-01T12:43:44;4.60;;;1.90;;
74059;SDS011;62414;53.436;8.828;2023-05-01T12:46:12;4.80;;;2.03;;
74059;SDS011;62414;53.436;8.828;2023-05-01T12:48:38;5.53;;;2.20;;
74059;SDS011;62414;53.436;8.828;2023-05-01T12:51:04;6.47;;;2.08;;
74059;SDS011;62414;53.436;8.828;2023-05-01T12:53:31;6.03;;;2.23;;
74059;SDS011;62414;53.436;8.828;2023-05-01T12:55:57;4.65;;;2.10;;
74059;SDS011;62414;53.436;8.828;2023-05-01T12:58:22;6.00;;;2.15;;
74059;SDS011;62414;53.436;8.828;2023-05-01T13:00:49;5.60;;;2.20;;
74059;SDS011;62414;53.436;8.828;2023-05-01T13:03:17;8.38;;;2.00;;
74059;SDS011;62414;53.436;8.828;2023-05-01T13:05:51;7.25;;;2.22;;
74059;SDS011;62414;53.436;8.828;2023-05-01T13:08:23;6.97;;;2.08;;
74059;SDS011;62414;53.436;8.828;2023-05-01T13:10:51;5.55;;;2.10;;
74059;SDS011;62414;53.436;8.828;2023-05-01T13:13:22;8.13;;;2.03;;
74059;SDS011;62414;53.436;8.828;2023-05-01T13:15:47;7.13;;;2.05;;
74059;SDS011;62414;53.436;8.828;2023-05-01T13:18:13;6.83;;;2.03;;
74059;SDS011;62414;53.436;8.828;2023-05-01T13:20:38;5.72;;;1.90;;
74059;SDS011;62414;53.436;8.828;2023-05-01T13:23:08;5.90;;;1.90;;
74059;SDS011;62414;53.436;8.828;2023-05-01T13:25:34;4.63;;;1.80;;
74059;SDS011;62414;53.436;8.828;2023-05-01T13:28:01;5.37;;;1.57;;
74059;SDS011;62414;53.436;8.828;2023-05-01T13:30:30;4.75;;;1.60;;
74059;SDS011;62414;53.436;8.828;2023-05-01T13:32:56;4.72;;;1.40;;
74059;SDS011;62414;53.436;8.828;2023-05-01T13:35:22;4.13;;;1.40;;
74059;SDS011;62414;53.436;8.828;2023-05-01T13:37:47;6.72;;;1.33;;
74059;SDS011;62414;53.436;8.828;2023-05-01T13:40:13;4.57;;;1.43;;
74059;SDS011;62414;53.436;8.828;2023-05-01T13:42:38;4.70;;;1.30;;
74059;SDS011;62414;53.436;8.828;2023-05-01T13:45:07;4.90;;;1.20;;
74059;SDS011;62414;53.436;8.828;2023-05-01T13:47:32;4.05;;;1.40;;
74059;SDS011;62414;53.436;8.828;2023-05-01T13:50:00;3.50;;;1.40;;
74059;SDS011;62414;53.436;8.828;2023-05-01T13:52:25;3.80;;;1.20;;
74059;SDS011;62414;53.436;8.828;2023-05-01T13:54:51;4.95;;;1.40;;
74059;SDS011;62414;53.436;8.828;2023-05-01T13:57:18;5.30;;;1.60;;
74059;SDS011;62414;53.436;8.828;2023-05-01T13:59:44;4.60;;;2.00;;
74059;SDS011;62414;53.436;8.828;2023-05-01T14:02:19;5.67;;;2.30;;
74059;SDS011;62414;53.436;8.828;2023-05-01T14:04:45;7.82;;;2.10;;
74059;SDS011;62414;53.436;8.828;2023-05-01T14:07:11;5.05;;;1.90;;
74059;SDS011;62414;53.436;8.828;2023-05-01T14:09:39;4.38;;;1.67;;
74059;SDS011;62414;53.436;8.828;2023-05-01T14:12:06;5.43;;;1.90;;
74059;SDS011;62414;53.436;8.828;2023-05-01T14:14:31;5.90;;;2.10;;
74059;SDS011;62414;53.436;8.828;2023-05-01T14:16:59;6.30;;;2.10;;
74059;SDS011;62414;53.436;8.828;2023-05-01T14:19:26;4.45;;;1.90;;
74059;SDS011;62414;53.436;8.828;2023-05-01T14:21:51;6.15;;;2.10;;
74059;SDS011;62414;53.436;8.828;2023-05-01T14:24:17;7.37;;;2.30;;
74059;SDS011;62414;53.436;8.828;2023-05-01T14:26:42;5.80;;;2.10;;
74059;SDS011;62414;53.436;8.828;2023-05-01T14:29:12;11.18;;;2.40;;
74059;SDS011;62414;53.436;8.828;2023-05-01T14:31:40;6.03;;;2.20;;
74059;SDS011;62414;53.436;8.828;2023-05-01T14:34:06;7.43;;;2.30;;
74059;SDS011;62414;53.436;8.828;2023-05-01T14:36:33;7.30;;;2.40;;
74059;SDS011;62414;53.436;8.828;2023-05-01T14:38:58;6.50;;;2.58;;
74059;SDS011;62414;53.436;8.828;2023-05-01T14:41:25;4.82;;;2.30;;
74059;SDS011;62414;53.436;8.828;2023-05-01T14:43:51;6.77;;;2.57;;
74059;SDS011;62414;53.436;8.828;2023-05-01T14:46:18;7.53;;;2.67;;
74059;SDS011;62414;53.436;8.828;2023-05-01T14:48:53;5.80;;;2.75;;
74059;SDS011;62414;53.436;8.828;2023-05-01T14:51:18;6.97;;;2.57;;
74059;SDS011;62414;53.436;8.828;2023-05-01T14:53:45;6.17;;;2.70;;